Time;durP1;ratioP1;P1;durP2;ratioP2;P2;SDS_P1;SDS_P2;PMS_P1;PMS_P2;Temp;Humidity;BMP_temperature;BMP_pressure;BME280_temperature;BME280_humidity;BME280_pressure;Samples;Min_cycle;Max_cycle;Signal;HPM_P1;HPM_P2
2023/02/26 00:00:16;;;;;;;;;;;;;;;;;;5113762;28;19924;-66
2023/02/26 00:02:44;;;;;;;;;;;;;;;;;;5111896;28;19935;-66
2023/02/26 00:05:10;;;;;;;;;;;;;;;;;;5114003;28;19924;-66
2023/02/26 00:07:36;;;;;;;;;;;;;;;;;;5113360;28;20392;-66
2023/02/26 00:10:02;;;;;;;;;;;;;;;;;;5095031;28;19928;-66
2023/02/26 00:12:28;;;;;;;;;;;;;;;;;;5111880;27;20520;-66
2023/02/26 00:14:54;;;;;;;;;;;;;;;;;;5111855;28;20492;-65
2023/02/26 00:17:20;;;;;;;;;;;;;;;;;;5106943;28;20011;-67
2023/02/26 00:19:45;;;;;;;;;;;;;;;;;;5103414;28;19920;-66
2023/02/26 00:22:11;;;;;;;;;;;;;;;;;;5114009;28;19931;-66
2023/02/26 00:24:37;;;;;;;;;;;;;;;;;;5113529;28;19927;-66
2023/02/26 00:27:03;;;;;;;;;;;;;;;;;;5095960;28;19919;-66
2023/02/26 00:29:29;;;;;;;;;;;;;;;;;;5101740;27;19966;-66
2023/02/26 00:31:55;;;;;;;;;;;;;;;;;;5092913;28;20017;-66
2023/02/26 00:34:21;;;;;;;;;;;;;;;;;;5127685;27;19927;-67
2023/02/26 00:36:47;;;;;;;;;;;;;;;;;;5093637;28;19919;-67
2023/02/26 00:39:13;;;;;;;;;;;;;;;;;;5112808;28;19931;-66
2023/02/26 00:41:38;;;;;;;;;;;;;;;;;;5110413;28;19924;-67
2023/02/26 00:44:04;;;;;;;;;;;;;;;;;;5099276;28;19965;-66
2023/02/26 00:46:30;;;;;;;;;;;;;;;;;;5108346;28;19923;-66
2023/02/26 00:48:56;;;;;;;;;;;;;;;;;;5093270;28;19963;-66
2023/02/26 00:51:22;;;;;;;;;;;;;;;;;;5112190;28;20620;-66
2023/02/26 00:53:48;;;;;;;;;;;;;;;;;;5092130;28;19919;-66
2023/02/26 00:56:14;;;;;;;;;;;;;;;;;;5111500;28;19920;-66
2023/02/26 00:58:40;;;;;;;;;;;;;;;;;;5112068;28;19920;-65
2023/02/26 01:01:05;;;;;;;;;;;;;;;;;;5112002;28;19924;-66
2023/02/26 01:03:31;;;;;;;;;;;;;;;;;;5110276;28;19943;-66
2023/02/26 01:05:57;;;;;;;;;;;;;;;;;;5111549;28;19981;-66
2023/02/26 01:08:23;;;;;;;;;;;;;;;;;;5108106;28;19965;-66
2023/02/26 01:10:49;;;;;;;;;;;;;;;;;;5110172;28;19930;-66
2023/02/26 01:13:15;;;;;;;;;;;;;;;;;;5111772;28;19951;-66
2023/02/26 01:15:41;;;;;;;;;;;;;;;;;;5110178;28;20451;-66
2023/02/26 01:18:07;;;;;;;;;;;;;;;;;;5111113;28;19926;-66
2023/02/26 01:20:34;;;;;;;;;;;;;;;;;;5109904;28;19931;-65
2023/02/26 01:23:00;;;;;;;;;;;;;;;;;;5109966;28;20269;-65
2023/02/26 01:25:26;;;;;;;;;;;;;;;;;;5093452;28;19926;-65
2023/02/26 01:27:52;;;;;;;;;;;;;;;;;;5091667;28;20499;-66
2023/02/26 01:30:18;;;;;;;;;;;;;;;;;;5110730;28;19920;-66
2023/02/26 01:32:44;;;;;;;;;;;;;;;;;;5101026;28;19923;-66
2023/02/26 01:35:09;;;;;;;;;;;;;;;;;;5110772;28;19949;-65
2023/02/26 01:37:36;;;;;;;;;;;;;;;;;;5110676;28;19985;-65
2023/02/26 01:40:02;;;;;;;;;;;;;;;;;;5107686;28;19959;-66
2023/02/26 01:42:27;;;;;;;;;;;;;;;;;;5118099;27;19966;-65
2023/02/26 01:44:53;;;;;;;;;;;;;;;;;;5110287;28;20038;-65
2023/02/26 01:47:19;;;;;;;;;;;;;;;;;;5111164;28;19924;-65
2023/02/26 01:49:45;;;;;;;;;;;;;;;;;;5109017;28;19920;-65
2023/02/26 01:52:11;;;;;;;;;;;;;;;;;;5111658;28;19935;-65
2023/02/26 01:54:37;;;;;;;;;;;;;;;;;;5108509;28;19953;-66
2023/02/26 01:57:03;;;;;;;;;;;;;;;;;;5103441;28;19924;-65
2023/02/26 01:59:29;;;;;;;;;;;;;;;;;;5103917;28;19924;-65
2023/02/26 02:01:55;;;;;;;;;;;;;;;;;;5107478;28;19983;-65
2023/02/26 02:04:21;;;;;;;;;;;;;;;;;;5111699;28;19935;-65
2023/02/26 02:06:47;;;;;;;;;;;;;;;;;;5111505;28;19924;-65
2023/02/26 02:09:13;;;;;;;;;;;;;;;;;;5113511;27;19934;-65
2023/02/26 02:11:39;;;;;;;;;;;;;;;;;;5088178;28;19927;-65
2023/02/26 02:14:05;;;;;;;;;;;;;;;;;;5110443;28;19931;-65
2023/02/26 02:16:31;;;;;;;;;;;;;;;;;;5110263;28;19966;-65
2023/02/26 02:18:57;;;;;;;;;;;;;;;;;;5111551;28;19962;-66
2023/02/26 02:21:23;;;;;;;;;;;;;;;;;;5092651;28;19953;-66
2023/02/26 02:23:49;;;;;;;;;;;;;;;;;;5092945;28;19926;-66
2023/02/26 02:26:15;;;;;;;;;;;;;;;;;;5110451;28;19920;-66
2023/02/26 02:28:41;;;;;;;;;;;;;;;;;;5107136;28;19924;-66
2023/02/26 02:31:07;;;;;;;;;;;;;;;;;;5094740;28;19923;-66
2023/02/26 02:33:33;;;;;;;;;;;;;;;;;;5111630;28;20010;-66
2023/02/26 02:35:59;;;;;;;;;;;;;;;;;;5110206;28;19934;-66
2023/02/26 02:38:25;;;;;;;;;;;;;;;;;;5110871;28;20345;-66
2023/02/26 02:40:50;;;;;;;;;;;;;;;;;;5110912;28;20335;-66
2023/02/26 02:43:16;;;;;;;;;;;;;;;;;;5108588;28;19988;-66
2023/02/26 02:45:43;;;;;;;;;;;;;;;;;;5106207;28;19919;-66
2023/02/26 02:48:09;;;;;;;;;;;;;;;;;;5111304;28;20288;-66
2023/02/26 02:50:34;;;;;;;;;;;;;;;;;;5111147;28;20006;-66
2023/02/26 02:53:00;;;;;;;;;;;;;;;;;;5108740;28;19932;-66
2023/02/26 02:55:26;;;;;;;;;;;;;;;;;;5110645;28;20403;-66
2023/02/26 02:57:52;;;;;;;;;;;;;;;;;;5109664;28;20366;-66
2023/02/26 03:00:18;;;;;;;;;;;;;;;;;;5110199;28;20045;-66
2023/02/26 03:02:44;;;;;;;;;;;;;;;;;;5110369;28;19920;-66
2023/02/26 03:05:10;;;;;;;;;;;;;;;;;;5108983;28;20430;-66
2023/02/26 03:07:36;;;;;;;;;;;;;;;;;;5108365;28;19924;-66
2023/02/26 03:10:02;;;;;;;;;;;;;;;;;;5110276;27;19930;-67
2023/02/26 03:12:27;;;;;;;;;;;;;;;;;;5117510;27;19924;-67
2023/02/26 03:14:53;;;;;;;;;;;;;;;;;;5124798;27;19927;-66
2023/02/26 03:17:20;;;;;;;;;;;;;;;;;;5116067;28;19920;-66
2023/02/26 03:19:45;;;;;;;;;;;;;;;;;;5098011;28;19970;-66
2023/02/26 03:22:12;;;;;;;;;;;;;;;;;;5115917;27;19988;-66
2023/02/26 03:24:38;;;;;;;;;;;;;;;;;;5115684;28;20380;-66
2023/02/26 03:27:04;;;;;;;;;;;;;;;;;;5114660;28;19953;-66
2023/02/26 03:29:30;;;;;;;;;;;;;;;;;;5115955;28;19926;-66
2023/02/26 03:31:56;;;;;;;;;;;;;;;;;;5114403;28;19946;-66
2023/02/26 03:34:22;;;;;;;;;;;;;;;;;;5115527;28;19927;-66
2023/02/26 03:36:48;;;;;;;;;;;;;;;;;;5115860;28;19926;-66
2023/02/26 03:39:14;;;;;;;;;;;;;;;;;;5115318;28;20007;-66
2023/02/26 03:41:40;;;;;;;;;;;;;;;;;;5097209;28;19930;-66
2023/02/26 03:44:06;;;;;;;;;;;;;;;;;;5096391;28;19924;-66
2023/02/26 03:46:32;;;;;;;;;;;;;;;;;;5092051;28;19969;-66
2023/02/26 03:48:57;;;;;;;;;;;;;;;;;;5095017;28;19920;-67
2023/02/26 03:51:23;;;;;;;;;;;;;;;;;;5094929;28;20612;-66
2023/02/26 03:53:49;;;;;;;;;;;;;;;;;;5076444;28;19924;-66
2023/02/26 03:56:15;;;;;;;;;;;;;;;;;;5104079;28;19993;-66
2023/02/26 03:58:41;;;;;;;;;;;;;;;;;;5115159;28;20295;-66
2023/02/26 04:01:07;;;;;;;;;;;;;;;;;;5114211;28;20035;-66
2023/02/26 04:03:33;;;;;;;;;;;;;;;;;;5106914;28;19924;-66
2023/02/26 04:05:59;;;;;;;;;;;;;;;;;;5094935;28;20315;-66
2023/02/26 04:08:25;;;;;;;;;;;;;;;;;;5094669;28;19920;-66
2023/02/26 04:10:51;;;;;;;;;;;;;;;;;;5102765;28;19950;-66
2023/02/26 04:13:17;;;;;;;;;;;;;;;;;;5097513;28;20368;-66
2023/02/26 04:15:42;;;;;;;;;;;;;;;;;;5107436;28;19920;-66
2023/02/26 04:18:08;;;;;;;;;;;;;;;;;;5112970;28;20100;-66
2023/02/26 04:20:34;;;;;;;;;;;;;;;;;;5109493;28;19920;-66
2023/02/26 04:23:00;;;;;;;;;;;;;;;;;;5112027;28;19930;-66
2023/02/26 04:25:26;;;;;;;;;;;;;;;;;;5111207;28;19919;-66
2023/02/26 04:27:52;;;;;;;;;;;;;;;;;;5113121;28;19984;-66
2023/02/26 04:30:18;;;;;;;;;;;;;;;;;;5113761;28;20382;-66
2023/02/26 04:32:44;;;;;;;;;;;;;;;;;;5112843;28;19928;-66
2023/02/26 04:35:09;;;;;;;;;;;;;;;;;;5094772;28;19943;-66
2023/02/26 04:37:35;;;;;;;;;;;;;;;;;;5111878;28;19920;-66
2023/02/26 04:40:02;;;;;;;;;;;;;;;;;;5113175;28;19920;-66
2023/02/26 04:42:28;;;;;;;;;;;;;;;;;;5113943;28;19926;-66
2023/02/26 04:44:54;;;;;;;;;;;;;;;;;;5108288;28;20367;-66
2023/02/26 04:47:20;;;;;;;;;;;;;;;;;;5111243;28;19926;-66
2023/02/26 04:49:46;;;;;;;;;;;;;;;;;;5111235;28;19923;-66
2023/02/26 04:52:12;;;;;;;;;;;;;;;;;;5104703;28;19924;-66
2023/02/26 04:54:39;;;;;;;;;;;;;;;;;;5111970;28;19939;-66
2023/02/26 04:57:05;;;;;;;;;;;;;;;;;;5118819;27;19970;-66
2023/02/26 04:59:31;;;;;;;;;;;;;;;;;;5109238;28;19959;-67
2023/02/26 05:01:57;;;;;;;;;;;;;;;;;;5110476;28;19920;-67
2023/02/26 05:04:23;;;;;;;;;;;;;;;;;;5111848;28;19949;-66
2023/02/26 05:06:49;;;;;;;;;;;;;;;;;;5111945;28;19920;-66
2023/02/26 05:09:15;;;;;;;;;;;;;;;;;;5108041;28;19955;-67
2023/02/26 05:11:40;;;;;;;;;;;;;;;;;;5111381;28;20051;-67
2023/02/26 05:14:06;;;;;;;;;;;;;;;;;;5093383;28;19968;-67
2023/02/26 05:16:32;;;;;;;;;;;;;;;;;;5089911;28;19946;-66
2023/02/26 05:18:58;;;;;;;;;;;;;;;;;;5104196;27;19919;-66
2023/02/26 05:21:24;;;;;;;;;;;;;;;;;;5110534;28;19926;-66
2023/02/26 05:23:50;;;;;;;;;;;;;;;;;;5111341;28;20393;-66
2023/02/26 05:26:16;;;;;;;;;;;;;;;;;;5084216;28;20002;-67
2023/02/26 05:28:44;;;;;;;;;;;;;;;;;;5111783;28;19964;-66
2023/02/26 05:31:10;;;;;;;;;;;;;;;;;;5110568;28;19972;-66
2023/02/26 05:33:36;;;;;;;;;;;;;;;;;;5111153;28;19924;-66
2023/02/26 05:36:02;;;;;;;;;;;;;;;;;;5107834;28;19931;-66
2023/02/26 05:38:28;;;;;;;;;;;;;;;;;;5112275;28;19944;-66
2023/02/26 05:40:54;;;;;;;;;;;;;;;;;;5110362;28;19920;-66
2023/02/26 05:43:19;;;;;;;;;;;;;;;;;;5099165;28;19920;-66
2023/02/26 05:45:45;;;;;;;;;;;;;;;;;;5109962;28;19977;-66
2023/02/26 05:48:12;;;;;;;;;;;;;;;;;;5112067;28;19959;-66
2023/02/26 05:50:38;;;;;;;;;;;;;;;;;;5097675;28;20273;-66
2023/02/26 05:53:03;;;;;;;;;;;;;;;;;;5103713;28;19924;-66
2023/02/26 05:55:29;;;;;;;;;;;;;;;;;;5111512;28;19924;-66
2023/02/26 05:57:55;;;;;;;;;;;;;;;;;;5110905;28;19924;-66
2023/02/26 06:00:21;;;;;;;;;;;;;;;;;;5110225;28;19923;-66
2023/02/26 06:02:47;;;;;;;;;;;;;;;;;;5108439;28;19974;-66
2023/02/26 06:05:13;;;;;;;;;;;;;;;;;;5093390;28;19923;-66
2023/02/26 06:07:39;;;;;;;;;;;;;;;;;;5094370;28;19921;-66
2023/02/26 06:10:05;;;;;;;;;;;;;;;;;;5101140;28;20314;-66
2023/02/26 06:12:30;;;;;;;;;;;;;;;;;;5111035;28;19928;-66
2023/02/26 06:14:56;;;;;;;;;;;;;;;;;;5111337;28;19946;-66
2023/02/26 06:17:22;;;;;;;;;;;;;;;;;;5107620;28;19955;-66
2023/02/26 06:19:48;;;;;;;;;;;;;;;;;;5093518;28;19919;-66
2023/02/26 06:22:14;;;;;;;;;;;;;;;;;;5123006;27;20446;-65
2023/02/26 06:24:40;;;;;;;;;;;;;;;;;;5127296;27;20022;-65
2023/02/26 06:27:06;;;;;;;;;;;;;;;;;;5110917;28;20440;-66
2023/02/26 06:29:32;;;;;;;;;;;;;;;;;;5111481;28;19920;-66
2023/02/26 06:31:58;;;;;;;;;;;;;;;;;;5109357;28;20406;-66
2023/02/26 06:34:24;;;;;;;;;;;;;;;;;;5084922;28;19927;-65
2023/02/26 06:36:50;;;;;;;;;;;;;;;;;;5108364;28;19920;-65
2023/02/26 06:39:15;;;;;;;;;;;;;;;;;;5110299;28;19927;-65
2023/02/26 06:41:41;;;;;;;;;;;;;;;;;;5110982;28;19920;-65
2023/02/26 06:44:07;;;;;;;;;;;;;;;;;;5092904;28;20422;-65
2023/02/26 06:46:33;;;;;;;;;;;;;;;;;;5113622;28;20007;-65
2023/02/26 06:48:59;;;;;;;;;;;;;;;;;;5111035;27;20316;-65
2023/02/26 06:51:25;;;;;;;;;;;;;;;;;;5108712;28;20345;-65
2023/02/26 06:53:51;;;;;;;;;;;;;;;;;;5089390;28;20340;-65
2023/02/26 06:56:17;;;;;;;;;;;;;;;;;;5096851;28;19977;-64
2023/02/26 06:58:43;;;;;;;;;;;;;;;;;;5115016;28;20006;-65
2023/02/26 07:01:09;;;;;;;;;;;;;;;;;;5110899;28;19920;-66
2023/02/26 07:03:35;;;;;;;;;;;;;;;;;;5106895;28;20414;-65
2023/02/26 07:06:01;;;;;;;;;;;;;;;;;;5106126;28;19971;-66
2023/02/26 07:08:26;;;;;;;;;;;;;;;;;;5114367;28;19943;-66
2023/02/26 07:10:52;;;;;;;;;;;;;;;;;;5127320;27;20006;-65
2023/02/26 07:13:18;;;;;;;;;;;;;;;;;;5136607;27;19927;-65
2023/02/26 07:15:44;;;;;;;;;;;;;;;;;;5117887;27;19933;-66
2023/02/26 07:18:10;;;;;;;;;;;;;;;;;;5111638;28;19920;-66
2023/02/26 07:20:36;;;;;;;;;;;;;;;;;;5113768;27;19924;-65
2023/02/26 07:23:02;;;;;;;;;;;;;;;;;;5110158;28;19977;-65
2023/02/26 07:25:28;;;;;;;;;;;;;;;;;;5115103;28;19923;-65
2023/02/26 07:27:55;;;;;;;;;;;;;;;;;;5113548;28;19927;-66
2023/02/26 07:30:21;;;;;;;;;;;;;;;;;;5114546;28;19927;-65
2023/02/26 07:32:46;;;;;;;;;;;;;;;;;;5110248;28;19989;-65
2023/02/26 07:35:12;;;;;;;;;;;;;;;;;;5075706;28;19920;-65
2023/02/26 07:37:38;;;;;;;;;;;;;;;;;;5097172;28;19954;-65
2023/02/26 07:40:04;;;;;;;;;;;;;;;;;;5092633;28;19924;-65
2023/02/26 07:42:30;;;;;;;;;;;;;;;;;;5093716;28;20015;-66
2023/02/26 07:44:56;;;;;;;;;;;;;;;;;;5093747;28;19994;-65
2023/02/26 07:47:22;;;;;;;;;;;;;;;;;;5093587;28;20533;-65
2023/02/26 07:49:48;;;;;;;;;;;;;;;;;;5093502;28;19931;-65
2023/02/26 07:52:14;;;;;;;;;;;;;;;;;;5091069;28;19924;-65
2023/02/26 07:54:40;;;;;;;;;;;;;;;;;;5091858;28;20011;-65
2023/02/26 07:57:05;;;;;;;;;;;;;;;;;;5093512;28;20003;-65
2023/02/26 07:59:31;;;;;;;;;;;;;;;;;;5076202;28;19931;-64
2023/02/26 08:01:57;;;;;;;;;;;;;;;;;;5093454;28;19963;-66
2023/02/26 08:04:23;;;;;;;;;;;;;;;;;;5094019;28;19973;-66
2023/02/26 08:06:49;;;;;;;;;;;;;;;;;;5092729;28;20484;-65
2023/02/26 08:09:15;;;;;;;;;;;;;;;;;;5093968;28;19924;-66
2023/02/26 08:11:42;;;;;;;;;;;;;;;;;;5058492;28;19924;-65
2023/02/26 08:14:08;;;;;;;;;;;;;;;;;;5090877;28;19955;-65
2023/02/26 08:16:33;;;;;;;;;;;;;;;;;;5073937;28;20044;-65
2023/02/26 08:18:59;;;;;;;;;;;;;;;;;;5091159;28;19920;-65
2023/02/26 08:21:25;;;;;;;;;;;;;;;;;;5092238;28;19940;-65
2023/02/26 08:23:51;;;;;;;;;;;;;;;;;;5072737;28;20308;-65
2023/02/26 08:26:17;;;;;;;;;;;;;;;;;;5093621;28;19924;-65
2023/02/26 08:28:43;;;;;;;;;;;;;;;;;;5074151;28;19998;-65
2023/02/26 08:31:09;;;;;;;;;;;;;;;;;;5086937;28;20369;-65
2023/02/26 08:33:35;;;;;;;;;;;;;;;;;;5093271;28;20004;-66
2023/02/26 08:36:01;;;;;;;;;;;;;;;;;;5099281;28;19954;-65
2023/02/26 08:38:27;;;;;;;;;;;;;;;;;;5072869;28;20320;-66
2023/02/26 08:40:53;;;;;;;;;;;;;;;;;;5093063;28;19947;-66
2023/02/26 08:43:19;;;;;;;;;;;;;;;;;;5087109;28;19932;-66
2023/02/26 08:45:45;;;;;;;;;;;;;;;;;;5087494;28;20473;-66
2023/02/26 08:48:11;;;;;;;;;;;;;;;;;;5098211;22;19924;-63
2023/02/26 08:50:37;;;;;;;;;;;;;;;;;;5092451;28;19930;-64
2023/02/26 08:53:03;;;;;;;;;;;;;;;;;;5091631;28;19974;-64
2023/02/26 08:55:29;;;;;;;;;;;;;;;;;;5081565;28;19920;-64
2023/02/26 08:57:55;;;;;;;;;;;;;;;;;;5089336;28;19927;-63
2023/02/26 09:00:21;;;;;;;;;;;;;;;;;;5091126;28;20321;-63
2023/02/26 09:02:47;;;;;;;;;;;;;;;;;;5084474;28;20258;-64
2023/02/26 09:05:13;;;;;;;;;;;;;;;;;;5089899;28;19959;-64
2023/02/26 09:07:39;;;;;;;;;;;;;;;;;;5088151;28;19971;-64
2023/02/26 09:10:05;;;;;;;;;;;;;;;;;;5072347;28;20561;-64
2023/02/26 09:12:31;;;;;;;;;;;;;;;;;;5080147;28;20076;-64
2023/02/26 09:14:57;;;;;;;;;;;;;;;;;;5088554;28;19920;-64
2023/02/26 09:17:23;;;;;;;;;;;;;;;;;;5092570;28;19935;-64
2023/02/26 09:19:49;;;;;;;;;;;;;;;;;;5093138;28;19920;-64
2023/02/26 09:22:15;;;;;;;;;;;;;;;;;;5094133;28;19931;-64
2023/02/26 09:24:41;;;;;;;;;;;;;;;;;;5087854;28;19962;-64
2023/02/26 09:27:07;;;;;;;;;;;;;;;;;;5091616;28;19931;-64
2023/02/26 09:29:33;;;;;;;;;;;;;;;;;;5093023;28;19920;-64
2023/02/26 09:31:59;;;;;;;;;;;;;;;;;;5092922;28;20022;-64
2023/02/26 09:34:25;;;;;;;;;;;;;;;;;;5084653;28;19924;-65
2023/02/26 09:36:50;;;;;;;;;;;;;;;;;;5090571;28;19931;-64
2023/02/26 09:39:16;;;;;;;;;;;;;;;;;;5092666;28;20357;-64
2023/02/26 09:41:42;;;;;;;;;;;;;;;;;;5091920;28;19935;-65
2023/02/26 09:44:08;;;;;;;;;;;;;;;;;;5089876;28;20022;-65
2023/02/26 09:46:34;;;;;;;;;;;;;;;;;;5090615;28;19924;-65
2023/02/26 09:49:00;;;;;;;;;;;;;;;;;;5090192;28;19928;-64
2023/02/26 09:51:26;;;;;;;;;;;;;;;;;;5091938;28;21575;-64
2023/02/26 09:53:52;;;;;;;;;;;;;;;;;;5090938;28;19928;-64
2023/02/26 09:56:18;;;;;;;;;;;;;;;;;;5085039;28;19947;-64
2023/02/26 09:58:44;;;;;;;;;;;;;;;;;;5082458;28;19920;-64
2023/02/26 10:01:10;;;;;;;;;;;;;;;;;;5086734;28;19924;-64
2023/02/26 10:03:35;;;;;;;;;;;;;;;;;;5092301;28;19965;-64
2023/02/26 10:06:02;;;;;;;;;;;;;;;;;;5092773;28;19928;-64
2023/02/26 10:08:28;;;;;;;;;;;;;;;;;;5076807;28;19921;-64
2023/02/26 10:10:54;;;;;;;;;;;;;;;;;;5084747;28;20355;-64
2023/02/26 10:13:20;;;;;;;;;;;;;;;;;;5090699;28;20061;-64
2023/02/26 10:15:45;;;;;;;;;;;;;;;;;;5088434;28;19969;-64
2023/02/26 10:18:11;;;;;;;;;;;;;;;;;;5085702;28;20270;-64
2023/02/26 10:20:38;;;;;;;;;;;;;;;;;;5090487;28;19920;-64
2023/02/26 10:23:04;;;;;;;;;;;;;;;;;;5091030;28;19926;-64
2023/02/26 10:25:30;;;;;;;;;;;;;;;;;;5091447;28;19947;-64
2023/02/26 10:27:56;;;;;;;;;;;;;;;;;;5090397;28;19927;-64
2023/02/26 10:30:21;;;;;;;;;;;;;;;;;;5089463;28;19924;-64
2023/02/26 10:32:47;;;;;;;;;;;;;;;;;;5091529;28;19927;-65
2023/02/26 10:35:13;;;;;;;;;;;;;;;;;;5087174;28;19924;-65
2023/02/26 10:37:39;;;;;;;;;;;;;;;;;;5081221;28;19990;-65
2023/02/26 10:40:08;;;;;;;;;;;;;;;;;;5076506;28;20015;-65
2023/02/26 10:42:33;;;;;;;;;;;;;;;;;;5086404;28;19924;-65
2023/02/26 10:44:59;;;;;;;;;;;;;;;;;;5071153;28;19924;-65
2023/02/26 10:47:25;;;;;;;;;;;;;;;;;;5086362;28;19927;-66
2023/02/26 10:49:51;;;;;;;;;;;;;;;;;;5062839;28;19920;-65
2023/02/26 10:52:17;;;;;;;;;;;;;;;;;;5089587;28;19924;-65
2023/02/26 10:54:43;;;;;;;;;;;;;;;;;;5072633;28;20314;-65
2023/02/26 10:57:09;;;;;;;;;;;;;;;;;;5087451;28;19999;-65
2023/02/26 10:59:35;;;;;;;;;;;;;;;;;;5083719;28;19934;-65
2023/02/26 11:02:01;;;;;;;;;;;;;;;;;;5084366;28;19920;-65
2023/02/26 11:04:27;;;;;;;;;;;;;;;;;;5085583;28;19981;-65
2023/02/26 11:06:53;;;;;;;;;;;;;;;;;;5084149;28;19920;-65
2023/02/26 11:09:20;;;;;;;;;;;;;;;;;;5086553;28;20295;-65
2023/02/26 11:11:46;;;;;;;;;;;;;;;;;;5083584;28;20416;-65
2023/02/26 11:14:13;;;;;;;;;;;;;;;;;;5087506;28;19967;-65
2023/02/26 11:16:39;;;;;;;;;;;;;;;;;;5079696;28;19931;-65
2023/02/26 11:19:05;;;;;;;;;;;;;;;;;;5089707;28;19920;-65
2023/02/26 11:21:30;;;;;;;;;;;;;;;;;;5080240;28;19920;-65
2023/02/26 11:23:56;;;;;;;;;;;;;;;;;;5087031;28;20019;-65
2023/02/26 11:26:22;;;;;;;;;;;;;;;;;;5083782;28;20315;-65
2023/02/26 11:28:48;;;;;;;;;;;;;;;;;;5083940;28;19920;-65
2023/02/26 11:31:14;;;;;;;;;;;;;;;;;;5087926;28;20158;-64
2023/02/26 11:33:40;;;;;;;;;;;;;;;;;;5091622;28;19928;-65
2023/02/26 11:36:06;;;;;;;;;;;;;;;;;;5088075;28;19941;-64
2023/02/26 11:38:32;;;;;;;;;;;;;;;;;;5101439;28;19946;-65
2023/02/26 11:40:58;;;;;;;;;;;;;;;;;;5092053;28;19926;-64
2023/02/26 11:43:24;;;;;;;;;;;;;;;;;;5081211;28;19920;-65
2023/02/26 11:45:50;;;;;;;;;;;;;;;;;;5092424;28;19921;-65
2023/02/26 11:48:16;;;;;;;;;;;;;;;;;;5081152;28;19963;-65
2023/02/26 11:50:42;;;;;;;;;;;;;;;;;;5067226;28;19928;-65
2023/02/26 11:53:09;;;;;;;;;;;;;;;;;;5069315;28;19935;-65
2023/02/26 11:55:35;;;;;;;;;;;;;;;;;;5068233;28;19928;-65
2023/02/26 11:58:01;;;;;;;;;;;;;;;;;;5063336;28;20006;-65
2023/02/26 12:00:26;;;;;;;;;;;;;;;;;;5066698;28;19929;-64
2023/02/26 12:02:52;;;;;;;;;;;;;;;;;;5057338;28;19982;-65
2023/02/26 12:05:18;;;;;;;;;;;;;;;;;;5062767;28;20004;-65
2023/02/26 12:07:45;;;;;;;;;;;;;;;;;;5045980;28;19928;-65
2023/02/26 12:10:12;;;;;;;;;;;;;;;;;;5062130;28;19921;-65
2023/02/26 12:12:37;;;;;;;;;;;;;;;;;;5067289;28;20314;-65
2023/02/26 12:15:03;;;;;;;;;;;;;;;;;;5071062;28;19946;-65
2023/02/26 12:17:31;;;;;;;;;;;;;;;;;;5070782;28;19928;-65
2023/02/26 12:19:56;;;;;;;;;;;;;;;;;;5064438;28;19990;-65
2023/02/26 12:22:22;;;;;;;;;;;;;;;;;;5067789;28;20432;-65
2023/02/26 12:24:48;;;;;;;;;;;;;;;;;;5069685;28;20428;-65
2023/02/26 12:27:14;;;;;;;;;;;;;;;;;;5067870;28;19920;-64
2023/02/26 12:29:40;;;;;;;;;;;;;;;;;;5072455;28;20290;-65
2023/02/26 12:32:06;;;;;;;;;;;;;;;;;;5069788;28;19931;-65
2023/02/26 12:34:32;;;;;;;;;;;;;;;;;;5058444;28;19924;-65
2023/02/26 12:36:58;;;;;;;;;;;;;;;;;;5053370;28;19921;-64
2023/02/26 12:39:24;;;;;;;;;;;;;;;;;;5085908;28;19973;-65
2023/02/26 12:41:50;;;;;;;;;;;;;;;;;;5070816;28;20354;-64
2023/02/26 12:44:15;;;;;;;;;;;;;;;;;;5070019;28;19943;-65
2023/02/26 12:46:41;;;;;;;;;;;;;;;;;;5061881;28;20180;-64
2023/02/26 12:49:07;;;;;;;;;;;;;;;;;;5082599;28;19928;-65
2023/02/26 12:51:33;;;;;;;;;;;;;;;;;;5093496;28;19920;-65
2023/02/26 12:53:59;;;;;;;;;;;;;;;;;;5094157;28;19924;-64
2023/02/26 12:56:25;;;;;;;;;;;;;;;;;;5094175;28;19920;-64
2023/02/26 12:58:51;;;;;;;;;;;;;;;;;;5091653;28;19936;-65
2023/02/26 13:01:17;;;;;;;;;;;;;;;;;;5093076;28;19975;-65
2023/02/26 13:03:43;;;;;;;;;;;;;;;;;;5093754;28;20320;-65
2023/02/26 13:06:08;;;;;;;;;;;;;;;;;;5075582;28;19920;-65
2023/02/26 13:08:34;;;;;;;;;;;;;;;;;;5093830;28;19924;-65
2023/02/26 13:11:00;;;;;;;;;;;;;;;;;;5093368;28;19970;-65
2023/02/26 13:13:26;;;;;;;;;;;;;;;;;;5093113;28;20330;-65
2023/02/26 13:15:52;;;;;;;;;;;;;;;;;;5078893;28;19924;-65
2023/02/26 13:18:18;;;;;;;;;;;;;;;;;;5075327;28;19940;-65
2023/02/26 13:20:44;;;;;;;;;;;;;;;;;;5060762;28;19924;-65
2023/02/26 13:23:10;;;;;;;;;;;;;;;;;;5088524;28;20400;-65
2023/02/26 13:25:36;;;;;;;;;;;;;;;;;;5091915;28;19927;-65
2023/02/26 13:28:01;;;;;;;;;;;;;;;;;;5092116;28;20341;-65
2023/02/26 13:30:27;;;;;;;;;;;;;;;;;;5091856;28;20357;-65
2023/02/26 13:32:53;;;;;;;;;;;;;;;;;;5075003;28;19925;-65
2023/02/26 13:35:19;;;;;;;;;;;;;;;;;;5103373;28;19921;-65
2023/02/26 13:37:45;;;;;;;;;;;;;;;;;;5090440;28;20292;-65
2023/02/26 13:40:11;;;;;;;;;;;;;;;;;;5087543;28;19920;-65
2023/02/26 13:42:37;;;;;;;;;;;;;;;;;;5068226;28;19924;-65
2023/02/26 13:45:03;;;;;;;;;;;;;;;;;;5085142;28;20400;-65
2023/02/26 13:47:29;;;;;;;;;;;;;;;;;;5090242;28;20263;-65
2023/02/26 13:49:55;;;;;;;;;;;;;;;;;;5086969;28;19921;-65
2023/02/26 13:52:21;;;;;;;;;;;;;;;;;;5075279;28;19931;-65
2023/02/26 13:54:47;;;;;;;;;;;;;;;;;;5089652;28;20384;-65
2023/02/26 13:57:13;;;;;;;;;;;;;;;;;;5093132;28;19962;-65
2023/02/26 13:59:38;;;;;;;;;;;;;;;;;;5088083;28;19920;-65
2023/02/26 14:02:04;;;;;;;;;;;;;;;;;;5092686;28;19926;-65
2023/02/26 14:04:30;;;;;;;;;;;;;;;;;;5091199;28;19920;-66
2023/02/26 14:06:56;;;;;;;;;;;;;;;;;;5091527;28;20400;-65
2023/02/26 14:09:22;;;;;;;;;;;;;;;;;;5091137;28;20010;-65
2023/02/26 14:11:48;;;;;;;;;;;;;;;;;;5087100;28;19927;-65
2023/02/26 14:14:14;;;;;;;;;;;;;;;;;;5088937;28;19920;-65
2023/02/26 14:16:40;;;;;;;;;;;;;;;;;;5079752;28;19949;-65
2023/02/26 14:19:06;;;;;;;;;;;;;;;;;;5080060;28;19920;-65
2023/02/26 14:21:32;;;;;;;;;;;;;;;;;;5087118;28;20353;-69
2023/02/26 14:23:58;;;;;;;;;;;;;;;;;;5070379;28;20002;-65
2023/02/26 14:26:24;;;;;;;;;;;;;;;;;;5090013;28;19947;-65
2023/02/26 14:28:54;;;;;;;;;;;;;;;;;;5089182;28;19928;-65
2023/02/26 14:31:21;;;;;;;;;;;;;;;;;;5072045;28;19920;-65
2023/02/26 14:33:46;;;;;;;;;;;;;;;;;;5090002;28;19930;-65
2023/02/26 14:36:12;;;;;;;;;;;;;;;;;;5085087;28;19928;-65
2023/02/26 14:38:39;;;;;;;;;;;;;;;;;;5087752;28;19924;-64
2023/02/26 14:41:05;;;;;;;;;;;;;;;;;;5087423;28;19934;-65
2023/02/26 14:43:31;;;;;;;;;;;;;;;;;;5089357;28;20328;-65
2023/02/26 14:45:57;;;;;;;;;;;;;;;;;;5090441;28;21418;-64
2023/02/26 14:48:31;;;;;;;;;;;;;;;;;;5081870;28;19924;-65
2023/02/26 14:50:57;;;;;;;;;;;;;;;;;;5068769;28;19924;-64
2023/02/26 14:53:22;;;;;;;;;;;;;;;;;;5072284;28;20408;-65
2023/02/26 14:55:48;;;;;;;;;;;;;;;;;;5072326;28;19921;-65
2023/02/26 14:58:15;;;;;;;;;;;;;;;;;;5070189;28;20398;-65
2023/02/26 15:00:41;;;;;;;;;;;;;;;;;;5064257;28;19924;-64
2023/02/26 15:03:07;;;;;;;;;;;;;;;;;;5052192;28;19920;-65
2023/02/26 15:05:33;;;;;;;;;;;;;;;;;;5069685;28;19942;-65
2023/02/26 15:07:59;;;;;;;;;;;;;;;;;;5047520;28;19971;-65
2023/02/26 15:10:25;;;;;;;;;;;;;;;;;;5075010;28;19924;-65
2023/02/26 15:12:50;;;;;;;;;;;;;;;;;;5074320;28;21648;-65
2023/02/26 15:15:16;;;;;;;;;;;;;;;;;;5069131;28;19920;-64
2023/02/26 15:17:42;;;;;;;;;;;;;;;;;;5056242;28;19935;-65
2023/02/26 15:20:08;;;;;;;;;;;;;;;;;;5075036;28;20361;-65
2023/02/26 15:22:34;;;;;;;;;;;;;;;;;;5055798;28;19927;-64
2023/02/26 15:25:01;;;;;;;;;;;;;;;;;;5073368;28;19929;-65
2023/02/26 15:27:27;;;;;;;;;;;;;;;;;;5071486;28;19928;-65
2023/02/26 15:29:53;;;;;;;;;;;;;;;;;;5068822;28;19928;-64
2023/02/26 15:32:19;;;;;;;;;;;;;;;;;;5054985;28;19958;-65
2023/02/26 15:34:45;;;;;;;;;;;;;;;;;;5072750;28;20015;-64
2023/02/26 15:37:11;;;;;;;;;;;;;;;;;;5073901;28;19955;-64
2023/02/26 15:39:37;;;;;;;;;;;;;;;;;;5072927;28;19982;-64
2023/02/26 15:42:04;;;;;;;;;;;;;;;;;;5075147;28;19925;-64
2023/02/26 15:44:29;;;;;;;;;;;;;;;;;;5069833;28;19920;-64
2023/02/26 15:46:55;;;;;;;;;;;;;;;;;;5067308;28;19921;-63
2023/02/26 15:49:21;;;;;;;;;;;;;;;;;;5073636;28;20278;-64
2023/02/26 15:51:47;;;;;;;;;;;;;;;;;;5072174;28;20007;-63
2023/02/26 15:54:13;;;;;;;;;;;;;;;;;;5071936;28;19920;-64
2023/02/26 15:56:40;;;;;;;;;;;;;;;;;;5071493;28;19921;-64
2023/02/26 15:59:06;;;;;;;;;;;;;;;;;;5046602;28;20305;-63
2023/02/26 16:01:31;;;;;;;;;;;;;;;;;;5069176;28;19927;-65
2023/02/26 16:03:57;;;;;;;;;;;;;;;;;;5074216;28;19933;-64
2023/02/26 16:06:23;;;;;;;;;;;;;;;;;;5059325;28;20362;-64
2023/02/26 16:08:49;;;;;;;;;;;;;;;;;;5068650;28;20011;-64
2023/02/26 16:11:15;;;;;;;;;;;;;;;;;;5071769;28;19920;-64
2023/02/26 16:13:41;;;;;;;;;;;;;;;;;;5069428;28;20366;-65
2023/02/26 16:16:08;;;;;;;;;;;;;;;;;;5055341;28;19920;-64
2023/02/26 16:18:34;;;;;;;;;;;;;;;;;;5050252;28;20298;-64
2023/02/26 16:21:03;;;;;;;;;;;;;;;;;;5036352;28;21325;-63
2023/02/26 16:23:29;;;;;;;;;;;;;;;;;;5063539;28;19928;-64
2023/02/26 16:25:55;;;;;;;;;;;;;;;;;;5065061;28;19928;-64
2023/02/26 16:28:21;;;;;;;;;;;;;;;;;;5054368;28;19925;-64
2023/02/26 16:30:47;;;;;;;;;;;;;;;;;;5054065;28;19932;-64
2023/02/26 16:33:12;;;;;;;;;;;;;;;;;;5069931;28;19932;-64
2023/02/26 16:35:38;;;;;;;;;;;;;;;;;;5074265;28;20266;-64